createdAt,value
2023-04-11T00:11:20.793Z,101135.46
2023-04-11T00:15:49.907Z,101123.52
2023-04-11T00:20:19.398Z,101120.33
2023-04-11T00:37:38.637Z,101086.84
2023-04-11T00:54:41.001Z,101050.86
2023-04-11T00:59:10.221Z,101047.13
2023-04-11T01:03:28.424Z,101038.48
2023-04-11T01:07:46.589Z,101034.59
2023-04-11T01:12:05.533Z,101026.39
2023-04-11T01:29:25.089Z,100995.68
2023-04-11T01:33:46.892Z,100992.38
2023-04-11T01:37:47.015Z,100987.66
2023-04-11T01:42:15.684Z,100983.99
2023-04-11T01:46:33.591Z,100973.95
2023-04-11T01:50:57.462Z,100967.05
2023-04-11T01:59:32.637Z,100953.46
2023-04-11T02:03:54.504Z,100947.82
2023-04-11T02:25:55.459Z,100899.81
2023-04-11T02:30:25.426Z,100885.71
2023-04-11T02:51:56.122Z,100831.55
2023-04-11T02:56:07.540Z,100807.79
2023-04-11T03:00:26.458Z,100794.84
2023-04-11T03:04:55.310Z,100791.59
2023-04-11T03:35:09.763Z,100728.89
2023-04-11T03:39:38.510Z,100722.55
2023-04-11T03:56:37.326Z,100701.91
2023-04-11T04:01:06.276Z,100701.19
2023-04-11T04:05:24.027Z,100697.73
2023-04-11T04:35:47.424Z,100680.23
2023-04-11T04:40:12.446Z,100676.30
2023-04-11T04:44:36.785Z,100668.67
2023-04-11T05:10:30.485Z,100635.41
2023-04-11T05:14:59.320Z,100630.77
2023-04-11T05:44:28.728Z,100618.63
2023-04-11T05:48:57.608Z,100618.27
2023-04-11T05:53:11.606Z,100619.96
2023-04-11T05:57:22.423Z,100617.83
2023-04-11T06:01:30.940Z,100616.48
2023-04-11T06:06:00.035Z,100606.40
2023-04-11T06:31:44.669Z,100606.13
2023-04-11T06:35:53.989Z,100599.13
2023-04-11T06:40:13.125Z,100603.23
2023-04-11T06:57:12.279Z,100598.63
2023-04-11T07:01:24.809Z,100594.89
2023-04-11T07:19:29.771Z,100584.07
2023-04-11T07:23:51.658Z,100578.45
2023-04-11T07:28:09.898Z,100574.45
2023-04-11T07:49:23.370Z,100585.98
2023-04-11T07:53:54.170Z,100591.52
2023-04-11T07:58:12.831Z,100596.42
2023-04-11T08:14:41.869Z,100598.65
2023-04-11T08:18:59.626Z,100600.65
2023-04-11T08:23:29.264Z,100601.76
2023-04-11T08:27:47.016Z,100595.20
2023-04-11T08:36:26.156Z,100597.24
2023-04-11T09:02:08.823Z,100601.89
2023-04-11T09:06:39.677Z,100604.47
2023-04-11T09:10:49.920Z,100608.15
2023-04-11T09:15:20.215Z,100607.24
2023-04-11T09:19:49.988Z,100605.41
2023-04-11T10:03:17.421Z,100591.86
2023-04-11T10:07:49.918Z,100586.71
2023-04-11T10:12:17.287Z,100590.36
2023-04-11T10:16:38.909Z,100594.72
2023-04-11T10:34:03.711Z,100605.73
2023-04-11T10:38:17.643Z,100609.30
2023-04-11T10:42:45.487Z,100614.12
2023-04-11T11:09:09.336Z,100602.73
2023-04-11T11:13:34.934Z,100604.77
2023-04-11T11:17:53.011Z,100599.34
2023-04-11T11:22:03.756Z,100594.23
2023-04-11T11:26:29.734Z,100595.59
2023-04-11T11:53:19.133Z,100601.23
2023-04-11T11:57:51.465Z,100605.11
2023-04-11T12:02:11.036Z,100605.33
2023-04-11T12:32:15.290Z,100607.04
2023-04-11T12:36:46.479Z,100611.19
2023-04-11T13:02:27.151Z,100599.42
2023-04-11T13:06:58.420Z,100596.25
2023-04-11T13:11:23.301Z,100599.50
2023-04-11T13:15:55.404Z,100592.65
2023-04-11T13:20:06.616Z,100587.59
2023-04-11T13:24:24.360Z,100586.14
2023-04-11T13:54:37.766Z,100643.48
2023-04-11T13:58:49.116Z,100638.08
2023-04-11T14:21:03.637Z,100614.80
2023-04-11T14:25:11.202Z,100621.80
2023-04-11T14:29:31.274Z,100626.13
2023-04-11T14:33:49.102Z,100626.52
2023-04-11T14:38:05.836Z,100633.18
2023-04-11T14:55:46.728Z,100626.36
2023-04-11T15:00:04.961Z,100625.81
2023-04-11T15:04:26.722Z,100624.19
2023-04-11T15:08:44.841Z,100623.10
2023-04-11T15:29:48.249Z,100634.26
2023-04-11T15:34:01.452Z,100631.80
2023-04-11T15:38:30.786Z,100628.09
2023-04-11T16:08:34.479Z,100680.55
2023-04-11T16:13:03.898Z,100683.16
2023-04-11T16:21:48.098Z,100685.38
2023-04-11T16:38:12.950Z,100724.54
2023-04-11T16:42:23.782Z,100726.92
2023-04-11T16:46:54.138Z,100725.63
2023-04-11T17:13:05.337Z,100729.47
2023-04-11T17:17:34.749Z,100735.14
2023-04-11T17:22:04.094Z,100740.99
2023-04-11T17:26:23.169Z,100742.06
2023-04-11T17:43:29.515Z,100763.70
2023-04-11T17:47:58.708Z,100774.77
2023-04-11T17:52:31.608Z,100774.16
2023-04-11T18:09:51.779Z,100805.99
2023-04-11T18:14:20.630Z,100809.63
2023-04-11T18:18:41.436Z,100814.31
2023-04-11T18:27:12.297Z,100818.42
2023-04-11T18:31:42.071Z,100819.44
2023-04-11T18:36:12.131Z,100828.54
2023-04-11T18:40:37.323Z,100837.31
2023-04-11T18:44:56.156Z,100842.95
2023-04-11T19:01:47.517Z,100854.02
2023-04-11T19:06:05.439Z,100861.04
2023-04-11T19:31:42.384Z,100878.89
2023-04-11T19:36:12.388Z,100877.44
2023-04-11T19:58:01.246Z,100872.35
2023-04-11T20:02:30.805Z,100872.56
2023-04-11T20:07:01.215Z,100872.60
2023-04-11T20:29:30.843Z,100889.43
2023-04-11T20:34:00.334Z,100892.23
2023-04-11T20:38:29.294Z,100891.16
2023-04-11T20:43:01.687Z,100893.60
2023-04-11T21:00:41.075Z,100898.48
2023-04-11T21:04:59.449Z,100899.81
2023-04-11T21:09:17.613Z,100902.24
2023-04-11T21:30:57.263Z,100920.58
2023-04-11T21:35:26.622Z,100927.46
2023-04-11T21:39:57.101Z,100926.55
2023-04-11T22:01:36.345Z,100944.83
2023-04-11T22:05:58.588Z,100950.69
2023-04-11T22:32:07.163Z,100955.00
2023-04-11T22:36:37.704Z,100957.45
2023-04-11T22:41:06.865Z,100955.10
2023-04-11T22:45:36.189Z,100953.78
2023-04-11T23:04:51.349Z,100962.27
2023-04-11T23:09:20.805Z,100962.64
2023-04-11T23:13:49.997Z,100966.33
2023-04-11T23:18:07.765Z,100962.77
2023-04-11T23:39:55.943Z,100958.42
2023-04-11T23:44:24.891Z,100958.92
2023-04-11T23:48:54.189Z,100960.01
2023-04-11T23:53:24.535Z,100962.70
